createdAt,value
2023-01-22T00:00:06.039Z,0.00
2023-01-22T00:01:06.046Z,0.00
2023-01-22T00:02:06.108Z,0.00
2023-01-22T00:03:06.075Z,0.00
2023-01-22T00:04:06.047Z,0.00
2023-01-22T00:05:05.992Z,0.00
2023-01-22T00:06:06.009Z,0.00
2023-01-22T00:07:05.995Z,0.00
2023-01-22T00:08:05.965Z,0.00
2023-01-22T00:09:05.984Z,0.00
2023-01-22T00:10:05.940Z,0.00
2023-01-22T00:11:05.938Z,0.00
2023-01-22T00:12:05.922Z,0.00
2023-01-22T00:13:05.951Z,0.00
2023-01-22T00:14:05.949Z,0.00
2023-01-22T00:15:05.908Z,0.00
2023-01-22T00:16:05.950Z,0.00
2023-01-22T00:17:06.873Z,0.00
2023-01-22T00:18:05.867Z,0.00
2023-01-22T00:19:05.877Z,0.00
2023-01-22T00:20:06.846Z,0.00
2023-01-22T00:21:05.840Z,0.00
2023-01-22T00:22:05.839Z,0.00
2023-01-22T00:23:05.843Z,0.00
2023-01-22T00:24:05.814Z,0.00
2023-01-22T00:25:05.785Z,0.00
2023-01-22T00:26:05.791Z,0.00
2023-01-22T00:27:05.769Z,0.00
2023-01-22T00:28:05.789Z,0.00
2023-01-22T00:29:05.783Z,0.00
2023-01-22T00:30:05.736Z,0.00
2023-01-22T00:31:05.856Z,0.00
2023-01-22T00:32:05.880Z,0.00
2023-01-22T00:33:05.739Z,0.00
2023-01-22T00:34:05.731Z,0.00
2023-01-22T00:35:05.685Z,0.00
2023-01-22T00:36:05.689Z,0.00
2023-01-22T00:37:05.779Z,0.00
2023-01-22T00:38:05.673Z,0.00
2023-01-22T00:39:05.677Z,0.00
2023-01-22T00:40:05.693Z,0.00
2023-01-22T00:41:05.636Z,0.00
2023-01-22T00:42:05.626Z,0.00
2023-01-22T00:43:05.622Z,0.00
2023-01-22T00:44:05.606Z,0.00
2023-01-22T00:45:05.642Z,0.00
2023-01-22T00:46:05.631Z,0.00
2023-01-22T00:47:05.591Z,0.00
2023-01-22T00:48:05.580Z,0.00
2023-01-22T00:49:05.548Z,0.00
2023-01-22T00:50:05.579Z,0.00
2023-01-22T00:51:05.576Z,0.00
2023-01-22T00:52:05.531Z,0.00
2023-01-22T00:53:05.565Z,0.00
2023-01-22T00:54:05.511Z,0.00
2023-01-22T00:55:05.490Z,0.00
2023-01-22T00:56:05.478Z,0.00
2023-01-22T00:57:05.470Z,0.00
2023-01-22T00:58:05.491Z,0.00
2023-01-22T00:59:05.521Z,0.00
2023-01-22T01:00:05.489Z,0.00
2023-01-22T01:01:05.490Z,0.00
2023-01-22T01:02:05.559Z,0.00
2023-01-22T01:03:05.417Z,0.00
2023-01-22T01:04:05.421Z,0.00
2023-01-22T01:05:05.405Z,0.00
2023-01-22T01:06:05.430Z,0.00
2023-01-22T01:07:05.370Z,0.00
2023-01-22T01:08:05.365Z,0.00
2023-01-22T01:09:05.371Z,0.00
2023-01-22T01:10:05.395Z,0.00
2023-01-22T01:11:05.369Z,0.00
2023-01-22T01:12:05.336Z,0.00
2023-01-22T01:13:05.408Z,0.00
2023-01-22T01:14:05.311Z,0.00
2023-01-22T01:15:05.367Z,0.00
2023-01-22T01:16:05.316Z,0.00
2023-01-22T01:17:05.303Z,0.00
2023-01-22T01:18:05.288Z,0.00
2023-01-22T01:19:05.264Z,0.00
2023-01-22T01:20:05.292Z,0.00
2023-01-22T01:21:05.243Z,0.00
2023-01-22T01:22:05.271Z,0.00
2023-01-22T01:23:05.233Z,0.00
2023-01-22T01:24:05.217Z,0.00
2023-01-22T01:25:05.215Z,0.00
2023-01-22T01:26:05.189Z,0.00
2023-01-22T01:27:05.214Z,0.00
2023-01-22T01:28:05.199Z,0.00
2023-01-22T01:29:05.241Z,0.00
2023-01-22T01:30:05.220Z,0.00
2023-01-22T01:31:05.250Z,0.00
2023-01-22T01:32:05.145Z,0.00
2023-01-22T01:33:05.121Z,0.00
2023-01-22T01:34:05.119Z,0.00
2023-01-22T01:35:05.146Z,0.00
2023-01-22T01:36:05.112Z,0.00
2023-01-22T01:37:05.113Z,0.00
2023-01-22T01:38:05.080Z,0.00
2023-01-22T01:39:05.074Z,0.00
2023-01-22T01:40:05.063Z,0.00
2023-01-22T01:41:05.073Z,0.00
2023-01-22T01:42:05.061Z,0.00
2023-01-22T01:43:05.026Z,0.00
2023-01-22T01:44:05.022Z,0.00
2023-01-22T01:45:05.101Z,0.00
2023-01-22T01:46:05.000Z,0.00
2023-01-22T01:47:05.005Z,0.00
2023-01-22T01:48:04.992Z,0.00
2023-01-22T01:49:04.980Z,0.00
2023-01-22T01:50:04.960Z,0.00
2023-01-22T01:51:05.012Z,0.00
2023-01-22T01:52:04.957Z,0.00
2023-01-22T01:53:04.986Z,0.00
2023-01-22T01:54:04.916Z,0.00
2023-01-22T01:55:04.916Z,0.00
2023-01-22T01:56:36.803Z,0.00
2023-01-22T01:57:04.883Z,0.00
2023-01-22T01:58:04.874Z,0.00
2023-01-22T01:59:04.894Z,0.00
2023-01-22T02:00:04.871Z,0.00
2023-01-22T02:01:05.004Z,0.00
2023-01-22T02:02:04.896Z,0.00
2023-01-22T02:03:04.830Z,0.00
2023-01-22T02:04:04.841Z,0.00
2023-01-22T02:05:04.801Z,0.00
2023-01-22T02:06:04.800Z,0.00
2023-01-22T02:07:04.812Z,0.00
2023-01-22T02:08:04.769Z,0.00
2023-01-22T02:09:04.772Z,0.00
2023-01-22T02:10:04.767Z,0.00
2023-01-22T02:11:04.769Z,0.00
2023-01-22T02:12:04.756Z,0.00
2023-01-22T02:13:04.727Z,0.00
2023-01-22T02:14:04.736Z,0.00
2023-01-22T02:15:04.717Z,0.00
2023-01-22T02:16:04.760Z,0.00
2023-01-22T02:17:10.396Z,0.00
2023-01-22T02:18:05.774Z,0.00
2023-01-22T02:19:04.706Z,0.00
2023-01-22T02:20:04.673Z,0.00
2023-01-22T02:21:04.671Z,0.00
2023-01-22T02:22:04.644Z,0.00
2023-01-22T02:23:04.637Z,0.00
2023-01-22T02:24:04.665Z,0.00
2023-01-22T02:25:04.610Z,0.00
2023-01-22T02:26:04.626Z,0.00
2023-01-22T02:27:04.622Z,0.00
2023-01-22T02:28:04.595Z,0.00
2023-01-22T02:29:04.576Z,0.00
2023-01-22T02:30:04.565Z,0.00
2023-01-22T02:31:04.617Z,0.00
2023-01-22T02:32:04.567Z,0.00
2023-01-22T02:33:04.560Z,0.00
2023-01-22T02:34:04.596Z,0.00
2023-01-22T02:35:04.520Z,0.00
2023-01-22T02:36:04.502Z,0.00
2023-01-22T02:37:04.530Z,0.00
2023-01-22T02:38:04.487Z,0.00
2023-01-22T02:39:04.475Z,0.00
2023-01-22T02:40:04.469Z,0.00
2023-01-22T02:41:04.454Z,0.00
2023-01-22T02:42:04.497Z,0.00
2023-01-22T02:43:04.454Z,0.00
2023-01-22T02:44:04.439Z,0.00
2023-01-22T02:45:04.424Z,0.00
2023-01-22T02:46:04.451Z,0.00
2023-01-22T02:47:04.407Z,0.00
2023-01-22T02:48:04.413Z,0.00
2023-01-22T02:49:04.387Z,0.00
2023-01-22T02:50:04.462Z,0.00
2023-01-22T02:51:04.421Z,0.00
2023-01-22T02:52:04.382Z,0.00
2023-01-22T02:53:04.355Z,0.00
2023-01-22T02:54:04.346Z,0.00
2023-01-22T02:55:04.317Z,0.00
2023-01-22T02:56:05.342Z,0.00
2023-01-22T02:57:04.363Z,0.00
2023-01-22T02:58:04.299Z,0.00
2023-01-22T02:59:04.302Z,0.00
2023-01-22T03:00:04.280Z,0.00
2023-01-22T03:01:04.290Z,0.00
2023-01-22T03:02:05.327Z,0.00
2023-01-22T03:03:04.262Z,0.00
2023-01-22T03:04:04.250Z,0.00
2023-01-22T03:05:04.237Z,0.00
2023-01-22T03:06:04.313Z,0.00
2023-01-22T03:07:04.208Z,0.00
2023-01-22T03:08:04.219Z,0.00
2023-01-22T03:09:04.239Z,0.00
2023-01-22T03:10:04.180Z,0.00
2023-01-22T03:11:04.170Z,0.00
2023-01-22T03:12:04.164Z,0.00
2023-01-22T03:13:04.157Z,0.00
2023-01-22T03:14:04.171Z,0.00
2023-01-22T03:15:04.140Z,0.00
2023-01-22T03:16:04.193Z,0.00
2023-01-22T03:17:04.123Z,0.00
2023-01-22T03:18:04.111Z,0.00
2023-01-22T03:19:04.099Z,0.00
2023-01-22T03:20:04.115Z,0.00
2023-01-22T03:21:04.078Z,0.00
2023-01-22T03:22:04.159Z,0.00
2023-01-22T03:23:04.073Z,0.00
2023-01-22T03:24:04.067Z,0.00
2023-01-22T03:25:04.059Z,0.00
2023-01-22T03:26:04.029Z,0.00
2023-01-22T03:27:04.044Z,0.00
2023-01-22T03:28:04.012Z,0.00
2023-01-22T03:29:04.016Z,0.00
2023-01-22T03:30:04.028Z,0.00
2023-01-22T03:31:04.001Z,0.00
2023-01-22T03:32:03.995Z,0.00
2023-01-22T03:33:03.971Z,0.00
2023-01-22T03:34:03.958Z,0.00
2023-01-22T03:35:03.985Z,0.00
2023-01-22T03:36:03.941Z,0.00
2023-01-22T03:37:03.915Z,0.00
2023-01-22T03:38:04.993Z,0.00
2023-01-22T03:39:03.929Z,0.00
2023-01-22T03:40:03.891Z,0.00
2023-01-22T03:41:03.908Z,0.00
2023-01-22T03:42:03.870Z,0.00
2023-01-22T03:43:03.861Z,0.00
2023-01-22T03:44:03.856Z,0.00
2023-01-22T03:45:03.865Z,0.00
2023-01-22T03:46:03.934Z,0.00
2023-01-22T03:47:03.828Z,0.00
2023-01-22T03:48:03.812Z,0.00
2023-01-22T03:49:03.802Z,0.00
2023-01-22T03:50:03.797Z,0.00
2023-01-22T03:51:03.856Z,0.00
2023-01-22T03:52:03.771Z,0.00
2023-01-22T03:53:03.769Z,0.00
2023-01-22T03:54:03.839Z,0.00
2023-01-22T03:55:03.759Z,0.00
2023-01-22T03:56:03.770Z,0.00
2023-01-22T03:57:03.729Z,0.00
2023-01-22T03:58:03.724Z,0.00
2023-01-22T03:59:03.712Z,0.00
2023-01-22T04:00:03.699Z,0.00
2023-01-22T04:01:03.730Z,0.00
2023-01-22T04:02:03.682Z,0.00
2023-01-22T04:03:03.667Z,0.00
2023-01-22T04:04:03.658Z,0.00
2023-01-22T04:05:03.641Z,0.00
2023-01-22T04:06:03.647Z,0.00
2023-01-22T04:07:03.643Z,0.00
2023-01-22T04:08:03.620Z,0.00
2023-01-22T04:09:03.629Z,0.00
2023-01-22T04:10:03.674Z,0.00
2023-01-22T04:11:03.604Z,0.00
2023-01-22T04:12:03.593Z,0.00
2023-01-22T04:13:03.588Z,0.00
2023-01-22T04:14:03.578Z,0.00
2023-01-22T04:15:03.552Z,0.00
2023-01-22T04:16:03.551Z,0.00
2023-01-22T04:17:03.559Z,0.00
2023-01-22T04:18:03.524Z,0.00
2023-01-22T04:19:03.539Z,0.00
2023-01-22T04:20:03.510Z,0.00
2023-01-22T04:21:03.495Z,0.00
2023-01-22T04:22:03.479Z,0.00
2023-01-22T04:23:03.480Z,0.00
2023-01-22T04:24:03.482Z,0.00
2023-01-22T04:25:03.457Z,0.00
2023-01-22T04:26:03.545Z,0.00
2023-01-22T04:27:03.439Z,0.00
2023-01-22T04:28:03.441Z,0.00
2023-01-22T04:29:03.463Z,0.00
2023-01-22T04:30:03.407Z,0.00
2023-01-22T04:31:03.454Z,0.00
2023-01-22T04:32:03.382Z,0.00
2023-01-22T04:33:03.420Z,0.00
2023-01-22T04:34:03.377Z,0.00
2023-01-22T04:35:03.357Z,0.00
2023-01-22T04:36:03.349Z,0.00
2023-01-22T04:37:03.356Z,0.00
2023-01-22T04:38:03.344Z,0.00
2023-01-22T04:39:03.326Z,0.00
2023-01-22T04:40:03.332Z,0.00
2023-01-22T04:41:03.301Z,0.00
2023-01-22T04:42:03.370Z,0.00
2023-01-22T04:43:03.289Z,0.00
2023-01-22T04:44:03.299Z,0.00
2023-01-22T04:45:03.276Z,0.00
2023-01-22T04:46:03.261Z,0.00
2023-01-22T04:47:03.243Z,0.00
2023-01-22T04:48:03.241Z,0.00
2023-01-22T04:49:03.254Z,0.00
2023-01-22T04:50:03.213Z,0.00
2023-01-22T04:51:03.258Z,0.00
2023-01-22T04:52:03.190Z,0.00
2023-01-22T04:53:03.203Z,0.00
2023-01-22T04:54:03.180Z,0.00
2023-01-22T04:55:03.171Z,0.00
2023-01-22T04:56:03.173Z,0.00
2023-01-22T04:57:03.160Z,0.00
2023-01-22T04:58:03.229Z,0.00
2023-01-22T04:59:03.129Z,0.00
2023-01-22T05:00:03.116Z,0.00
2023-01-22T05:01:03.141Z,0.00
2023-01-22T05:02:03.133Z,0.00
2023-01-22T05:03:03.085Z,0.00
2023-01-22T05:04:03.078Z,0.00
2023-01-22T05:05:03.086Z,0.00
2023-01-22T05:06:03.079Z,0.00
2023-01-22T05:07:03.045Z,0.00
2023-01-22T05:08:03.038Z,0.00
2023-01-22T05:09:03.030Z,0.00
2023-01-22T05:10:03.074Z,0.00
2023-01-22T05:11:03.049Z,0.00
2023-01-22T05:12:03.014Z,0.00
2023-01-22T05:13:03.003Z,0.00
2023-01-22T05:14:03.084Z,0.00
2023-01-22T05:15:07.272Z,0.00
2023-01-22T05:16:04.018Z,0.00
2023-01-22T05:17:02.953Z,0.00
2023-01-22T05:18:02.947Z,0.00
2023-01-22T05:19:02.938Z,0.00
2023-01-22T05:20:02.938Z,0.00
2023-01-22T05:21:02.940Z,0.00
2023-01-22T05:22:02.918Z,0.00
2023-01-22T05:23:02.897Z,0.00
2023-01-22T05:24:02.894Z,0.00
2023-01-22T05:25:02.883Z,0.00
2023-01-22T05:26:02.894Z,0.00
2023-01-22T05:27:02.864Z,0.00
2023-01-22T05:28:02.860Z,0.00
2023-01-22T05:29:02.845Z,0.00
2023-01-22T05:30:02.933Z,0.00
2023-01-22T05:31:02.952Z,0.00
2023-01-22T05:32:02.858Z,0.00
2023-01-22T05:33:02.848Z,0.00
2023-01-22T05:34:02.780Z,0.00
2023-01-22T05:35:02.771Z,0.00
2023-01-22T05:36:02.787Z,0.00
2023-01-22T05:37:02.781Z,0.00
2023-01-22T05:38:02.751Z,0.00
2023-01-22T05:39:02.761Z,0.00
2023-01-22T05:40:02.735Z,0.00
2023-01-22T05:41:02.732Z,0.00
2023-01-22T05:42:02.718Z,0.00
2023-01-22T05:43:02.701Z,0.00
2023-01-22T05:44:02.685Z,0.00
2023-01-22T05:45:03.672Z,0.00
2023-01-22T05:46:02.838Z,0.00
2023-01-22T05:47:02.661Z,0.00
2023-01-22T05:48:02.656Z,0.00
2023-01-22T05:49:02.661Z,0.00
2023-01-22T05:50:02.643Z,0.00
2023-01-22T05:51:02.659Z,0.00
2023-01-22T05:52:02.609Z,0.00
2023-01-22T05:53:02.601Z,0.00
2023-01-22T05:54:02.620Z,0.00
2023-01-22T05:55:02.583Z,0.00
2023-01-22T05:56:02.585Z,0.00
2023-01-22T05:57:02.574Z,0.00
2023-01-22T05:58:02.847Z,0.00
2023-01-22T05:59:02.544Z,0.00
2023-01-22T06:00:02.564Z,0.00
2023-01-22T06:01:02.532Z,0.00
2023-01-22T06:02:02.599Z,0.00
2023-01-22T06:03:02.505Z,0.00
2023-01-22T06:04:02.507Z,0.00
2023-01-22T06:05:02.533Z,0.00
2023-01-22T06:06:02.467Z,0.00
2023-01-22T06:07:02.466Z,0.00
2023-01-22T06:08:02.465Z,0.00
2023-01-22T06:09:02.444Z,0.00
2023-01-22T06:10:02.452Z,0.00
2023-01-22T06:11:02.427Z,0.00
2023-01-22T06:12:02.421Z,0.00
2023-01-22T06:13:02.411Z,0.00
2023-01-22T06:14:02.396Z,0.00
2023-01-22T06:15:02.387Z,0.00
2023-01-22T06:16:02.428Z,0.00
2023-01-22T06:17:02.429Z,0.00
2023-01-22T06:18:02.441Z,0.00
2023-01-22T06:19:02.349Z,0.00
2023-01-22T06:20:02.359Z,0.00
2023-01-22T06:21:02.334Z,0.00
2023-01-22T06:22:02.343Z,0.00
2023-01-22T06:23:02.309Z,0.00
2023-01-22T06:24:02.307Z,0.00
2023-01-22T06:25:02.307Z,0.00
2023-01-22T06:26:02.303Z,0.00
2023-01-22T06:27:02.298Z,0.00
2023-01-22T06:28:02.279Z,0.00
2023-01-22T06:29:02.249Z,0.00
2023-01-22T06:30:02.264Z,0.00
2023-01-22T06:31:02.550Z,0.00
2023-01-22T06:32:02.249Z,0.00
2023-01-22T06:33:02.283Z,0.00
2023-01-22T06:34:02.331Z,0.00
2023-01-22T06:35:02.181Z,0.00
2023-01-22T06:36:02.257Z,0.00
2023-01-22T06:37:02.193Z,0.00
2023-01-22T06:38:02.180Z,0.00
2023-01-22T06:39:02.179Z,0.00
2023-01-22T06:40:02.150Z,0.00
2023-01-22T06:41:02.144Z,0.00
2023-01-22T06:42:02.127Z,0.00
2023-01-22T06:43:02.121Z,0.00
2023-01-22T06:44:02.169Z,0.00
2023-01-22T06:45:02.127Z,0.00
2023-01-22T06:46:02.086Z,0.00
2023-01-22T06:47:02.081Z,0.00
2023-01-22T06:48:02.060Z,0.00
2023-01-22T06:49:02.056Z,0.00
2023-01-22T06:50:02.152Z,0.00
2023-01-22T06:51:02.121Z,0.00
2023-01-22T06:52:02.044Z,0.00
2023-01-22T06:53:02.004Z,0.00
2023-01-22T06:54:02.001Z,0.00
2023-01-22T06:55:02.011Z,0.00
2023-01-22T06:56:01.991Z,0.00
2023-01-22T06:57:01.967Z,0.00
2023-01-22T06:58:01.987Z,0.00
2023-01-22T06:59:01.944Z,0.00
2023-01-22T07:00:01.999Z,0.00
2023-01-22T07:01:01.928Z,0.00
2023-01-22T07:02:01.976Z,0.00
2023-01-22T07:03:01.899Z,0.00
2023-01-22T07:04:01.945Z,0.00
2023-01-22T07:05:01.885Z,0.00
2023-01-22T07:06:01.968Z,0.00
2023-01-22T07:07:01.877Z,0.00
2023-01-22T07:08:01.876Z,5.62
2023-01-22T07:09:01.902Z,5.62
2023-01-22T07:10:01.845Z,5.62
2023-01-22T07:11:01.838Z,5.62
2023-01-22T07:12:01.832Z,5.62
2023-01-22T07:13:02.820Z,5.62
2023-01-22T07:14:01.829Z,5.62
2023-01-22T07:15:01.804Z,11.25
2023-01-22T07:16:01.868Z,11.25
2023-01-22T07:17:01.781Z,11.25
2023-01-22T07:18:01.783Z,11.25
2023-01-22T07:19:01.783Z,16.88
2023-01-22T07:20:01.782Z,16.88
2023-01-22T07:21:01.738Z,16.88
2023-01-22T07:22:01.809Z,16.88
2023-01-22T07:23:01.725Z,22.50
2023-01-22T07:24:01.703Z,22.50
2023-01-22T07:25:02.730Z,22.50
2023-01-22T07:26:01.702Z,22.50
2023-01-22T07:27:01.683Z,28.12
2023-01-22T07:28:01.679Z,28.12
2023-01-22T07:29:01.658Z,28.12
2023-01-22T07:30:01.668Z,33.75
2023-01-22T07:31:01.739Z,33.75
2023-01-22T07:32:01.621Z,33.75
2023-01-22T07:33:01.635Z,39.38
2023-01-22T07:34:01.610Z,39.38
2023-01-22T07:35:01.594Z,45.00
2023-01-22T07:36:01.618Z,50.62
2023-01-22T07:37:01.565Z,56.25
2023-01-22T07:38:01.719Z,56.25
2023-01-22T07:39:01.560Z,61.88
2023-01-22T07:40:01.623Z,61.88
2023-01-22T07:41:01.572Z,67.50
2023-01-22T07:42:01.658Z,67.50
2023-01-22T07:43:01.568Z,67.50
2023-01-22T07:44:01.554Z,67.50
2023-01-22T07:45:01.534Z,73.12
2023-01-22T07:46:01.530Z,78.75
2023-01-22T07:47:01.500Z,78.75
2023-01-22T07:48:01.495Z,78.75
2023-01-22T07:49:01.472Z,90.00
2023-01-22T07:50:01.465Z,95.62
2023-01-22T07:51:01.467Z,106.88
2023-01-22T07:52:01.461Z,112.50
2023-01-22T07:53:01.434Z,123.75
2023-01-22T07:54:01.550Z,140.62
2023-01-22T07:55:01.412Z,140.62
2023-01-22T07:56:11.699Z,140.62
2023-01-22T07:57:01.399Z,140.62
2023-01-22T07:58:01.379Z,146.25
2023-01-22T07:59:01.417Z,157.50
2023-01-22T08:00:01.388Z,157.50
2023-01-22T08:01:01.480Z,163.12
2023-01-22T08:02:03.499Z,168.75
2023-01-22T08:03:02.333Z,180.00
2023-01-22T08:04:01.327Z,185.62
2023-01-22T08:05:01.327Z,196.88
2023-01-22T08:06:01.312Z,202.50
2023-01-22T08:07:01.284Z,202.50
2023-01-22T08:08:02.289Z,191.25
2023-01-22T08:09:01.287Z,185.62
2023-01-22T08:10:01.336Z,191.25
2023-01-22T08:11:01.285Z,191.25
2023-01-22T08:12:01.250Z,196.88
2023-01-22T08:13:01.230Z,202.50
2023-01-22T08:14:02.228Z,213.75
2023-01-22T08:15:01.231Z,230.62
2023-01-22T08:16:01.298Z,241.88
2023-01-22T08:17:01.187Z,241.88
2023-01-22T08:18:01.226Z,247.50
2023-01-22T08:19:01.197Z,253.12
2023-01-22T08:20:01.168Z,258.75
2023-01-22T08:21:01.209Z,264.38
2023-01-22T08:22:01.149Z,281.25
2023-01-22T08:23:01.139Z,286.88
2023-01-22T08:24:01.122Z,275.62
2023-01-22T08:25:01.122Z,270.00
2023-01-22T08:26:01.183Z,275.62
2023-01-22T08:27:01.116Z,298.12
2023-01-22T08:28:01.083Z,320.62
2023-01-22T08:29:04.813Z,326.25
2023-01-22T08:30:01.070Z,320.62
2023-01-22T08:31:01.108Z,309.38
2023-01-22T08:32:02.196Z,315.00
2023-01-22T08:33:01.038Z,309.38
2023-01-22T08:34:01.051Z,309.38
2023-01-22T08:35:01.007Z,320.62
2023-01-22T08:36:00.995Z,331.88
2023-01-22T08:37:01.009Z,348.75
2023-01-22T08:38:00.999Z,365.62
2023-01-22T08:39:00.997Z,382.50
2023-01-22T08:40:00.977Z,360.00
2023-01-22T08:41:00.968Z,354.38
2023-01-22T08:42:01.023Z,343.12
2023-01-22T08:43:00.954Z,337.50
2023-01-22T08:44:00.924Z,331.88
2023-01-22T08:45:00.935Z,326.25
2023-01-22T08:46:00.945Z,309.38
2023-01-22T08:47:00.894Z,298.12
2023-01-22T08:48:00.895Z,303.75
2023-01-22T08:49:00.934Z,320.62
2023-01-22T08:50:00.870Z,331.88
2023-01-22T08:51:00.906Z,337.50
2023-01-22T08:52:00.853Z,320.62
2023-01-22T08:53:00.864Z,326.25
2023-01-22T08:54:00.847Z,337.50
2023-01-22T08:55:00.829Z,320.62
2023-01-22T08:56:00.821Z,315.00
2023-01-22T08:57:00.833Z,315.00
2023-01-22T08:58:00.883Z,303.75
2023-01-22T08:59:00.780Z,303.75
2023-01-22T09:00:01.697Z,315.00
2023-01-22T09:01:01.865Z,315.00
2023-01-22T09:02:00.810Z,315.00
2023-01-22T09:03:00.801Z,303.75
2023-01-22T09:04:00.743Z,292.50
2023-01-22T09:05:00.739Z,286.88
2023-01-22T09:06:00.716Z,286.88
2023-01-22T09:07:00.739Z,281.25
2023-01-22T09:08:00.715Z,286.88
2023-01-22T09:09:00.681Z,286.88
2023-01-22T09:10:00.669Z,286.88
2023-01-22T09:11:00.661Z,292.50
2023-01-22T09:12:00.659Z,298.12
2023-01-22T09:13:00.672Z,298.12
2023-01-22T09:14:00.727Z,298.12
2023-01-22T09:15:00.642Z,292.50
2023-01-22T09:16:00.665Z,298.12
2023-01-22T09:17:00.612Z,298.12
2023-01-22T09:18:00.654Z,292.50
2023-01-22T09:19:00.589Z,286.88
2023-01-22T09:20:00.598Z,275.62
2023-01-22T09:21:00.570Z,281.25
2023-01-22T09:22:00.572Z,286.88
2023-01-22T09:23:00.537Z,292.50
2023-01-22T09:24:00.575Z,298.12
2023-01-22T09:25:00.587Z,298.12
2023-01-22T09:26:00.531Z,298.12
2023-01-22T09:27:00.538Z,298.12
2023-01-22T09:28:00.518Z,309.38
2023-01-22T09:29:00.500Z,320.62
2023-01-22T09:30:00.586Z,320.62
2023-01-22T09:31:00.507Z,320.62
2023-01-22T09:32:00.552Z,309.38
2023-01-22T09:33:00.453Z,303.75
2023-01-22T09:34:00.450Z,303.75
2023-01-22T09:35:00.443Z,298.12
2023-01-22T09:36:00.462Z,286.88
2023-01-22T09:37:00.429Z,270.00
2023-01-22T09:38:00.423Z,253.12
2023-01-22T09:39:00.417Z,253.12
2023-01-22T09:40:00.415Z,258.75
2023-01-22T09:41:00.410Z,270.00
2023-01-22T09:42:00.368Z,264.38
2023-01-22T09:43:00.359Z,264.38
2023-01-22T09:44:00.344Z,264.38
2023-01-22T09:45:00.392Z,258.75
2023-01-22T09:46:00.679Z,253.12
2023-01-22T09:47:00.323Z,241.88
2023-01-22T09:48:00.315Z,236.25
2023-01-22T09:49:00.312Z,230.62
2023-01-22T09:50:00.315Z,225.00
2023-01-22T09:51:00.348Z,213.75
2023-01-22T09:52:00.298Z,202.50
2023-01-22T09:53:00.268Z,191.25
2023-01-22T09:54:00.269Z,185.62
2023-01-22T09:55:00.230Z,185.62
2023-01-22T09:56:00.263Z,185.62
2023-01-22T09:57:00.207Z,185.62
2023-01-22T09:58:00.223Z,191.25
2023-01-22T09:59:00.197Z,185.62
2023-01-22T10:00:00.238Z,185.62
2023-01-22T10:01:00.703Z,191.25
2023-01-22T10:02:00.293Z,185.62
2023-01-22T10:03:00.186Z,174.38
2023-01-22T10:04:00.183Z,174.38
2023-01-22T10:05:00.196Z,180.00
2023-01-22T10:06:00.167Z,180.00
2023-01-22T10:07:00.137Z,174.38
2023-01-22T10:08:00.133Z,174.38
2023-01-22T10:09:00.122Z,174.38
2023-01-22T10:10:00.169Z,168.75
2023-01-22T10:11:00.136Z,174.38
2023-01-22T10:12:00.143Z,180.00
2023-01-22T10:13:00.094Z,180.00
2023-01-22T10:14:00.081Z,180.00
2023-01-22T10:15:00.050Z,174.38
2023-01-22T10:16:00.102Z,174.38
2023-01-22T10:17:00.163Z,174.38
2023-01-22T10:18:00.129Z,174.38
2023-01-22T10:19:00.017Z,168.75
2023-01-22T10:20:00.057Z,168.75
2023-01-22T10:21:00.019Z,168.75
2023-01-22T10:22:00.009Z,168.75
2023-01-22T10:22:59.996Z,174.38
2023-01-22T10:24:00.025Z,174.38
2023-01-22T10:25:00.000Z,174.38
2023-01-22T10:25:59.979Z,168.75
2023-01-22T10:26:59.961Z,163.12
2023-01-22T10:27:59.974Z,157.50
2023-01-22T10:28:59.943Z,157.50
2023-01-22T10:29:59.912Z,157.50
2023-01-22T10:30:59.955Z,163.12
2023-01-22T10:31:59.967Z,174.38
2023-01-22T10:32:59.908Z,185.62
2023-01-22T10:33:59.965Z,185.62
2023-01-22T10:34:59.887Z,185.62
2023-01-22T10:35:59.886Z,180.00
2023-01-22T10:36:59.860Z,174.38
2023-01-22T10:37:59.828Z,174.38
2023-01-22T10:38:59.835Z,174.38
2023-01-22T10:39:59.868Z,174.38
2023-01-22T10:40:59.819Z,174.38
2023-01-22T10:41:59.807Z,180.00
2023-01-22T10:42:59.806Z,174.38
2023-01-22T10:43:59.795Z,174.38
2023-01-22T10:44:59.805Z,174.38
2023-01-22T10:45:59.884Z,180.00
2023-01-22T10:46:59.835Z,185.62
2023-01-22T10:47:59.774Z,185.62
2023-01-22T10:48:59.716Z,191.25
2023-01-22T10:49:59.775Z,196.88
2023-01-22T10:50:59.733Z,196.88
2023-01-22T10:51:59.709Z,191.25
2023-01-22T10:52:59.662Z,185.62
2023-01-22T10:53:59.676Z,180.00
2023-01-22T10:54:59.656Z,174.38
2023-01-22T10:55:59.642Z,168.75
2023-01-22T10:56:59.657Z,163.12
2023-01-22T10:57:59.629Z,157.50
2023-01-22T10:58:59.603Z,151.88
2023-01-22T10:59:59.627Z,151.88
2023-01-22T11:00:59.619Z,151.88
2023-01-22T11:01:59.622Z,151.88
2023-01-22T11:02:59.574Z,146.25
2023-01-22T11:03:59.564Z,140.62
2023-01-22T11:04:59.567Z,140.62
2023-01-22T11:05:59.641Z,140.62
2023-01-22T11:06:59.553Z,140.62
2023-01-22T11:07:59.554Z,140.62
2023-01-22T11:08:59.498Z,140.62
2023-01-22T11:09:59.526Z,140.62
2023-01-22T11:10:59.493Z,146.25
2023-01-22T11:11:59.512Z,140.62
2023-01-22T11:12:59.737Z,140.62
2023-01-22T11:14:00.480Z,140.62
2023-01-22T11:14:59.469Z,135.00
2023-01-22T11:15:59.529Z,135.00
2023-01-22T11:16:59.440Z,135.00
2023-01-22T11:17:59.452Z,135.00
2023-01-22T11:18:59.442Z,135.00
2023-01-22T11:19:59.420Z,140.62
2023-01-22T11:20:59.453Z,140.62
2023-01-22T11:21:59.497Z,140.62
2023-01-22T11:22:59.394Z,140.62
2023-01-22T11:23:59.356Z,140.62
2023-01-22T11:24:59.353Z,140.62
2023-01-22T11:25:59.359Z,146.25
2023-01-22T11:26:59.338Z,146.25
2023-01-22T11:27:59.331Z,146.25
2023-01-22T11:28:59.323Z,146.25
2023-01-22T11:29:59.312Z,140.62
2023-01-22T11:30:59.377Z,140.62
2023-01-22T11:31:59.299Z,135.00
2023-01-22T11:32:59.281Z,135.00
2023-01-22T11:33:59.279Z,129.38
2023-01-22T11:34:59.261Z,129.38
2023-01-22T11:35:59.252Z,135.00
2023-01-22T11:36:59.267Z,135.00
2023-01-22T11:37:59.309Z,135.00
2023-01-22T11:38:59.222Z,135.00
2023-01-22T11:39:59.215Z,129.38
2023-01-22T11:40:59.193Z,135.00
2023-01-22T11:41:59.201Z,129.38
2023-01-22T11:42:59.179Z,135.00
2023-01-22T11:43:59.171Z,135.00
2023-01-22T11:44:59.185Z,129.38
2023-01-22T11:45:59.188Z,129.38
2023-01-22T11:46:59.138Z,129.38
2023-01-22T11:47:59.133Z,129.38
2023-01-22T11:48:59.118Z,129.38
2023-01-22T11:49:59.139Z,129.38
2023-01-22T11:50:59.188Z,129.38
2023-01-22T11:51:59.116Z,129.38
2023-01-22T11:52:59.088Z,129.38
2023-01-22T11:53:59.150Z,129.38
2023-01-22T11:54:59.066Z,129.38
2023-01-22T11:55:59.048Z,123.75
2023-01-22T11:56:59.107Z,123.75
2023-01-22T11:57:59.022Z,123.75
2023-01-22T11:58:59.027Z,123.75
2023-01-22T11:59:59.008Z,129.38
2023-01-22T12:00:59.016Z,129.38
2023-01-22T12:01:59.007Z,129.38
2023-01-22T12:02:59.049Z,129.38
2023-01-22T12:03:59.094Z,135.00
2023-01-22T12:04:58.965Z,140.62
2023-01-22T12:05:58.942Z,146.25
2023-01-22T12:06:58.979Z,140.62
2023-01-22T12:07:58.938Z,129.38
2023-01-22T12:08:58.949Z,129.38
2023-01-22T12:09:58.986Z,129.38
2023-01-22T12:10:58.890Z,129.38
2023-01-22T12:11:58.894Z,129.38
2023-01-22T12:12:58.881Z,123.75
2023-01-22T12:13:58.895Z,123.75
2023-01-22T12:14:58.852Z,123.75
2023-01-22T12:15:58.885Z,123.75
2023-01-22T12:16:58.843Z,123.75
2023-01-22T12:17:58.825Z,123.75
2023-01-22T12:18:58.819Z,118.12
2023-01-22T12:19:58.851Z,118.12
2023-01-22T12:20:58.798Z,118.12
2023-01-22T12:21:58.778Z,112.50
2023-01-22T12:22:58.788Z,112.50
2023-01-22T12:23:58.770Z,112.50
2023-01-22T12:24:58.806Z,118.12
2023-01-22T12:25:58.845Z,112.50
2023-01-22T12:26:58.783Z,112.50
2023-01-22T12:27:58.717Z,112.50
2023-01-22T12:28:59.739Z,118.12
2023-01-22T12:29:58.715Z,118.12
2023-01-22T12:30:58.839Z,112.50
2023-01-22T12:31:58.751Z,112.50
2023-01-22T12:32:58.715Z,112.50
2023-01-22T12:33:58.683Z,112.50
2023-01-22T12:34:58.687Z,112.50
2023-01-22T12:35:58.670Z,112.50
2023-01-22T12:36:58.655Z,106.88
2023-01-22T12:37:58.643Z,112.50
2023-01-22T12:38:58.655Z,112.50
2023-01-22T12:39:58.633Z,112.50
2023-01-22T12:40:58.603Z,112.50
2023-01-22T12:41:58.694Z,112.50
2023-01-22T12:42:58.611Z,112.50
2023-01-22T12:43:58.573Z,112.50
2023-01-22T12:44:58.561Z,106.88
2023-01-22T12:45:58.544Z,106.88
2023-01-22T12:46:59.550Z,112.50
2023-01-22T12:47:58.560Z,118.12
2023-01-22T12:48:58.528Z,106.88
2023-01-22T12:49:58.509Z,101.25
2023-01-22T12:50:58.518Z,101.25
2023-01-22T12:51:58.514Z,101.25
2023-01-22T12:52:58.471Z,101.25
2023-01-22T12:53:58.471Z,101.25
2023-01-22T12:54:58.457Z,95.62
2023-01-22T12:55:58.470Z,101.25